Time;durP1;ratioP1;P1;durP2;ratioP2;P2;SDS_P1;SDS_P2;PMS_P1;PMS_P2;Temp;Humidity;BMP_temperature;BMP_pressure;BME280_temperature;BME280_humidity;BME280_pressure;Samples;Min_cycle;Max_cycle;Signal;HPM_P1;HPM_P2
2021/11/09 00:00:35;;;;;;;6.53;3.83;;;;;;;;;;4950796;28;20289;-71
2021/11/09 00:03:05;;;;;;;6.00;3.50;;;;;;;;;;4956212;28;20170;-72
2021/11/09 00:05:31;;;;;;;9.03;3.60;;;;;;;;;;4937173;28;20544;-71
2021/11/09 00:08:00;;;;;;;7.17;3.83;;;;;;;;;;4937035;28;20810;-72
2021/11/09 00:10:28;;;;;;;7.37;3.37;;;;;;;;;;4953290;28;21485;-72
2021/11/09 00:12:59;;;;;;;10.70;3.40;;;;;;;;;;4950666;28;20561;-72
2021/11/09 00:15:25;;;;;;;5.07;3.13;;;;;;;;;;4954399;28;20956;-71
2021/11/09 00:17:51;;;;;;;8.20;2.93;;;;;;;;;;4952566;28;20445;-72
2021/11/09 00:20:18;;;;;;;4.77;3.40;;;;;;;;;;4954814;28;20275;-72
2021/11/09 00:22:43;;;;;;;8.50;3.10;;;;;;;;;;4953105;28;20438;-72
2021/11/09 00:25:09;;;;;;;7.50;3.60;;;;;;;;;;4952627;28;20513;-72
2021/11/09 00:27:34;;;;;;;8.47;4.80;;;;;;;;;;4952132;28;20202;-71
2021/11/09 00:30:01;;;;;;;5.23;3.70;;;;;;;;;;4950132;28;20449;-72
2021/11/09 00:32:26;;;;;;;8.33;3.87;;;;;;;;;;4954535;28;20194;-72
2021/11/09 00:34:51;;;;;;;5.60;3.97;;;;;;;;;;4949773;28;20457;-72
2021/11/09 00:37:17;;;;;;;8.00;4.10;;;;;;;;;;4948173;28;20190;-71
2021/11/09 00:39:42;;;;;;;6.93;3.93;;;;;;;;;;4950135;28;20197;-72
2021/11/09 00:42:08;;;;;;;11.30;5.23;;;;;;;;;;4950675;28;20178;-72
2021/11/09 00:44:33;;;;;;;9.57;4.50;;;;;;;;;;4951630;28;20214;-72
2021/11/09 00:46:59;;;;;;;16.60;4.80;;;;;;;;;;4954618;28;20672;-72
2021/11/09 00:49:24;;;;;;;7.80;5.00;;;;;;;;;;4956462;28;20216;-72
2021/11/09 00:51:50;;;;;;;7.77;4.63;;;;;;;;;;4952170;28;20214;-71
2021/11/09 00:54:16;;;;;;;7.50;5.60;;;;;;;;;;4952546;28;20277;-72
2021/11/09 00:56:42;;;;;;;12.10;5.90;;;;;;;;;;4951811;28;20191;-72
2021/11/09 00:59:08;;;;;;;9.90;6.50;;;;;;;;;;4954570;28;20442;-71
2021/11/09 01:01:33;;;;;;;8.23;6.10;;;;;;;;;;4955761;28;20186;-71
2021/11/09 01:03:59;;;;;;;10.57;7.40;;;;;;;;;;4956171;28;20440;-72
2021/11/09 01:06:24;;;;;;;12.80;8.30;;;;;;;;;;4946166;28;20625;-72
2021/11/09 01:08:50;;;;;;;11.63;8.00;;;;;;;;;;4949721;28;20716;-72
2021/11/09 01:11:15;;;;;;;13.83;7.90;;;;;;;;;;4957030;28;20183;-72
2021/11/09 01:13:40;;;;;;;9.43;6.90;;;;;;;;;;4953413;28;20206;-72
2021/11/09 01:16:06;;;;;;;9.80;6.93;;;;;;;;;;4953252;28;20234;-72
2021/11/09 01:18:34;;;;;;;11.90;6.97;;;;;;;;;;4952978;28;20183;-71
2021/11/09 01:20:59;;;;;;;13.27;7.37;;;;;;;;;;4953523;28;20661;-71
2021/11/09 01:23:25;;;;;;;10.47;7.50;;;;;;;;;;4958000;28;20473;-72
2021/11/09 01:25:50;;;;;;;10.50;6.70;;;;;;;;;;4953154;28;20497;-72
2021/11/09 01:28:16;;;;;;;10.87;7.70;;;;;;;;;;4952926;28;20187;-72
2021/11/09 01:30:42;;;;;;;11.07;8.10;;;;;;;;;;4953738;28;20175;-72
2021/11/09 01:33:08;;;;;;;11.07;6.87;;;;;;;;;;4934924;28;20314;-72
2021/11/09 01:35:33;;;;;;;11.77;7.60;;;;;;;;;;4949760;28;20849;-72
2021/11/09 01:38:02;;;;;;;10.07;7.67;;;;;;;;;;4951990;28;20664;-72
2021/11/09 01:40:28;;;;;;;10.87;8.17;;;;;;;;;;4949380;28;20196;-72
2021/11/09 01:42:54;;;;;;;11.37;7.60;;;;;;;;;;4944233;28;20582;-72
2021/11/09 01:45:20;;;;;;;12.47;7.30;;;;;;;;;;4950124;28;20458;-72
2021/11/09 01:47:45;;;;;;;13.33;7.60;;;;;;;;;;4946119;28;20468;-72
2021/11/09 01:50:12;;;;;;;9.00;7.90;;;;;;;;;;4950496;28;20190;-71
2021/11/09 01:52:38;;;;;;;12.90;8.43;;;;;;;;;;4951939;28;20226;-72
2021/11/09 01:55:04;;;;;;;10.37;8.60;;;;;;;;;;4933784;28;20850;-72
2021/11/09 01:57:29;;;;;;;11.20;8.10;;;;;;;;;;4951074;28;20215;-72
2021/11/09 02:00:02;;;;;;;11.80;8.00;;;;;;;;;;4947684;28;20458;-72
2021/11/09 02:02:28;;;;;;;11.73;7.90;;;;;;;;;;4949003;28;20582;-72
2021/11/09 02:04:53;;;;;;;11.33;8.20;;;;;;;;;;4951691;28;20468;-71
2021/11/09 02:07:18;;;;;;;15.60;10.40;;;;;;;;;;4955875;28;20234;-72
2021/11/09 02:09:46;;;;;;;13.50;8.17;;;;;;;;;;4953960;28;20211;-72
2021/11/09 02:12:11;;;;;;;14.87;9.47;;;;;;;;;;4954407;28;20190;-72
2021/11/09 02:14:36;;;;;;;11.33;8.40;;;;;;;;;;4954631;28;20960;-72
2021/11/09 02:17:03;;;;;;;13.63;9.23;;;;;;;;;;4952227;28;20286;-71
2021/11/09 02:19:28;;;;;;;14.57;7.73;;;;;;;;;;4953834;28;20195;-72
2021/11/09 02:21:53;;;;;;;13.43;8.23;;;;;;;;;;4954139;28;21006;-71
2021/11/09 02:24:19;;;;;;;14.40;8.07;;;;;;;;;;4955672;28;20628;-70
2021/11/09 02:26:44;;;;;;;11.80;8.20;;;;;;;;;;4951389;28;20217;-72
2021/11/09 02:29:09;;;;;;;10.53;8.07;;;;;;;;;;4955558;28;20282;-72
2021/11/09 02:31:34;;;;;;;12.80;7.80;;;;;;;;;;4955684;28;20202;-72
2021/11/09 02:34:00;;;;;;;10.40;7.60;;;;;;;;;;4953833;28;21794;-72
2021/11/09 02:36:25;;;;;;;13.00;8.00;;;;;;;;;;4954782;28;20207;-72
2021/11/09 02:38:51;;;;;;;12.70;7.90;;;;;;;;;;4956094;28;20642;-72
2021/11/09 02:41:17;;;;;;;10.10;7.80;;;;;;;;;;4954320;28;20194;-72
2021/11/09 02:43:45;;;;;;;14.70;7.90;;;;;;;;;;4954446;28;20435;-71
2021/11/09 02:49:43;;;;;;;14.23;8.83;;;;;;;;;;4953622;28;20425;-72
2021/11/09 02:54:15;;;;;;;13.73;7.20;;;;;;;;;;4975308;23;20473;-71
2021/11/09 02:56:56;;;;;;;12.53;6.93;;;;;;;;;;5010614;28;20427;-70
2021/11/09 03:02:11;;;;;;;13.03;7.63;;;;;;;;;;5024210;28;20478;-72
2021/11/09 03:04:55;;;;;;;11.53;6.20;;;;;;;;;;5016539;28;20966;-71
2021/11/09 03:07:29;;;;;;;12.43;6.70;;;;;;;;;;4999791;28;20467;-72
2021/11/09 03:10:13;;;;;;;12.13;6.87;;;;;;;;;;4999599;28;20420;-71
2021/11/09 03:12:40;;;;;;;11.10;6.80;;;;;;;;;;5000899;28;24264;-71
2021/11/09 03:15:08;;;;;;;9.60;7.00;;;;;;;;;;5003044;28;20644;-72
2021/11/09 03:17:46;;;;;;;13.83;6.70;;;;;;;;;;5000438;28;20436;-73
2021/11/09 03:20:21;;;;;;;13.57;6.10;;;;;;;;;;5002954;28;20918;-72
2021/11/09 03:44:46;;;;;;;17.47;6.57;;;;;;;;;;4999114;28;20498;-71
2021/11/09 03:47:14;;;;;;;21.03;6.53;;;;;;;;;;4997850;28;20440;-71
2021/11/09 03:49:41;;;;;;;19.63;7.97;;;;;;;;;;4997588;28;20421;-71
2021/11/09 03:52:11;;;;;;;16.93;6.60;;;;;;;;;;4997272;28;20436;-73
2021/11/09 03:54:39;;;;;;;12.00;6.53;;;;;;;;;;4999419;28;20463;-72
2021/11/09 04:02:20;;;;;;;13.87;6.90;;;;;;;;;;5000301;28;20431;-72
2021/11/09 04:05:07;;;;;;;16.63;7.37;;;;;;;;;;4999855;28;20448;-70
2021/11/09 04:10:12;;;;;;;20.27;7.00;;;;;;;;;;4998864;28;20582;-71
2021/11/09 04:12:57;;;;;;;22.90;7.90;;;;;;;;;;4998609;28;20950;-72
2021/11/09 04:15:48;;;;;;;14.13;6.80;;;;;;;;;;4999487;28;20477;-71
2021/11/09 04:26:36;;;;;;;17.70;6.83;;;;;;;;;;4996000;28;20475;-71
2021/11/09 04:43:39;;;;;;;20.43;7.53;;;;;;;;;;4996358;28;20442;-73
2021/11/09 04:51:02;;;;;;;20.37;7.33;;;;;;;;;;4997482;28;20432;-71
2021/11/09 05:09:18;;;;;;;22.10;8.20;;;;;;;;;;4997785;28;20416;-73
2021/11/09 05:11:44;;;;;;;14.27;6.50;;;;;;;;;;4991056;28;20585;-71
2021/11/09 05:14:10;;;;;;;16.80;7.10;;;;;;;;;;4997071;28;20962;-71
2021/11/09 05:16:36;;;;;;;20.20;6.60;;;;;;;;;;4996235;28;20791;-71
2021/11/09 05:19:02;;;;;;;15.90;6.00;;;;;;;;;;4996491;28;20484;-73
2021/11/09 05:21:27;;;;;;;12.60;5.70;;;;;;;;;;4997243;28;20233;-71
2021/11/09 05:23:53;;;;;;;17.60;6.70;;;;;;;;;;4994565;28;20534;-71
2021/11/09 05:26:18;;;;;;;18.53;6.40;;;;;;;;;;4997799;28;20666;-72
2021/11/09 05:28:45;;;;;;;17.50;6.93;;;;;;;;;;4994667;28;20177;-72
2021/11/09 05:31:11;;;;;;;18.50;8.20;;;;;;;;;;4995894;28;20185;-71
2021/11/09 05:33:36;;;;;;;15.43;7.40;;;;;;;;;;4999616;28;20516;-71
2021/11/09 05:36:03;;;;;;;15.90;6.70;;;;;;;;;;4998814;28;20193;-71
2021/11/09 05:38:34;;;;;;;20.43;7.37;;;;;;;;;;4998714;28;20181;-71
2021/11/09 05:41:07;;;;;;;19.27;6.70;;;;;;;;;;4995972;28;21184;-72
2021/11/09 05:43:32;;;;;;;20.70;6.87;;;;;;;;;;4998533;28;20427;-70
2021/11/09 05:45:57;;;;;;;16.73;6.53;;;;;;;;;;4994663;28;20460;-70
2021/11/09 05:48:25;;;;;;;21.97;7.10;;;;;;;;;;4997572;28;20280;-72
2021/11/09 05:50:50;;;;;;;21.43;6.80;;;;;;;;;;4998480;28;20694;-71
2021/11/09 05:53:15;;;;;;;14.83;6.93;;;;;;;;;;4998246;28;20573;-71
2021/11/09 05:55:41;;;;;;;27.20;7.43;;;;;;;;;;4991704;28;20255;-70
2021/11/09 05:58:06;;;;;;;16.77;6.70;;;;;;;;;;4994636;28;20196;-71
2021/11/09 06:00:32;;;;;;;15.30;6.07;;;;;;;;;;4980783;28;20185;-72
2021/11/09 06:02:57;;;;;;;20.33;6.40;;;;;;;;;;4994495;28;20239;-71
2021/11/09 06:05:24;;;;;;;15.97;6.30;;;;;;;;;;4985369;28;20673;-72
2021/11/09 06:07:50;;;;;;;18.50;6.30;;;;;;;;;;4993878;28;20224;-71
2021/11/09 06:10:15;;;;;;;16.87;6.63;;;;;;;;;;4980899;28;20454;-69
2021/11/09 06:12:40;;;;;;;17.33;6.97;;;;;;;;;;4995549;28;20178;-69
2021/11/09 06:15:06;;;;;;;21.40;6.27;;;;;;;;;;4996263;28;20739;-69
2021/11/09 06:17:31;;;;;;;18.87;6.60;;;;;;;;;;4993264;28;20216;-72
2021/11/09 06:19:56;;;;;;;20.83;7.00;;;;;;;;;;4994832;28;20587;-70
2021/11/09 06:22:22;;;;;;;18.20;6.63;;;;;;;;;;4994822;28;20237;-70
2021/11/09 06:24:47;;;;;;;24.63;8.53;;;;;;;;;;4995990;28;20209;-71
2021/11/09 06:27:13;;;;;;;17.30;8.00;;;;;;;;;;4994489;28;20216;-70
2021/11/09 06:29:39;;;;;;;22.00;7.63;;;;;;;;;;4993120;28;20458;-70
2021/11/09 06:32:05;;;;;;;27.70;8.87;;;;;;;;;;4994489;28;20207;-69
2021/11/09 06:34:30;;;;;;;19.27;8.70;;;;;;;;;;4994540;28;21226;-70
2021/11/09 06:36:55;;;;;;;27.97;9.10;;;;;;;;;;4998237;28;20189;-70
2021/11/09 06:39:25;;;;;;;22.30;8.67;;;;;;;;;;4994916;28;20537;-71
2021/11/09 06:41:51;;;;;;;19.47;8.17;;;;;;;;;;4998385;28;20181;-70
2021/11/09 06:44:16;;;;;;;22.43;8.33;;;;;;;;;;4990132;28;20587;-70
2021/11/09 06:46:41;;;;;;;23.13;9.17;;;;;;;;;;4989939;28;20528;-70
2021/11/09 06:49:07;;;;;;;20.50;9.30;;;;;;;;;;4996636;28;20262;-71
2021/11/09 06:51:32;;;;;;;20.10;8.53;;;;;;;;;;4992366;28;20264;-70
2021/11/09 06:53:57;;;;;;;23.60;9.40;;;;;;;;;;4991728;28;20176;-70
2021/11/09 06:56:22;;;;;;;30.17;10.30;;;;;;;;;;4990771;28;20750;-70
2021/11/09 06:58:48;;;;;;;24.73;9.20;;;;;;;;;;4992320;28;20211;-70
2021/11/09 07:01:13;;;;;;;29.07;11.30;;;;;;;;;;4995842;28;20182;-70
2021/11/09 07:03:39;;;;;;;25.80;10.90;;;;;;;;;;4992874;28;20259;-70
2021/11/09 07:06:05;;;;;;;19.10;8.50;;;;;;;;;;4974339;28;20232;-70
2021/11/09 07:08:30;;;;;;;24.60;11.30;;;;;;;;;;4992556;28;20177;-70
2021/11/09 07:10:55;;;;;;;20.03;9.60;;;;;;;;;;4993942;28;20463;-71
2021/11/09 07:13:21;;;;;;;24.50;9.73;;;;;;;;;;4997658;28;20190;-71
2021/11/09 07:15:46;;;;;;;23.93;10.50;;;;;;;;;;4987948;28;20291;-71
2021/11/09 07:18:12;;;;;;;25.83;10.60;;;;;;;;;;4994127;28;20185;-71
2021/11/09 07:20:37;;;;;;;23.97;10.53;;;;;;;;;;4998445;28;20182;-72
2021/11/09 07:23:03;;;;;;;33.93;12.47;;;;;;;;;;4992523;28;20174;-70
2021/11/09 07:25:29;;;;;;;27.77;11.63;;;;;;;;;;4996119;28;20217;-70
2021/11/09 07:27:55;;;;;;;22.27;10.20;;;;;;;;;;4998918;28;20463;-70
2021/11/09 07:30:22;;;;;;;30.07;10.87;;;;;;;;;;4994637;28;20428;-70
2021/11/09 07:32:48;;;;;;;24.20;10.60;;;;;;;;;;4994193;28;20181;-72
2021/11/09 07:35:15;;;;;;;25.03;9.70;;;;;;;;;;4999184;28;20452;-70
2021/11/09 07:37:40;;;;;;;26.33;11.53;;;;;;;;;;4995869;28;20376;-71
2021/11/09 07:40:06;;;;;;;23.77;10.77;;;;;;;;;;4994965;28;20439;-71
2021/11/09 07:42:31;;;;;;;31.03;11.40;;;;;;;;;;4993053;28;20190;-72
2021/11/09 07:44:56;;;;;;;26.60;11.60;;;;;;;;;;4993591;28;20456;-69
2021/11/09 07:47:22;;;;;;;23.93;10.73;;;;;;;;;;4991002;28;20709;-70
2021/11/09 07:49:48;;;;;;;22.83;11.63;;;;;;;;;;4994593;28;20693;-70
2021/11/09 07:52:13;;;;;;;31.30;10.40;;;;;;;;;;4993583;28;20440;-71
2021/11/09 07:54:41;;;;;;;30.50;10.90;;;;;;;;;;4973327;23;20764;-71
2021/11/09 07:57:10;;;;;;;23.93;10.90;;;;;;;;;;4989292;28;20461;-70
2021/11/09 07:59:55;;;;;;;24.33;10.23;;;;;;;;;;4994748;28;20483;-71
2021/11/09 08:04:54;;;;;;;23.53;10.37;;;;;;;;;;4999527;28;20462;-70
2021/11/09 08:07:26;;;;;;;23.37;9.87;;;;;;;;;;5010409;28;20462;-71
2021/11/09 08:09:52;;;;;;;23.10;11.03;;;;;;;;;;5014903;28;20427;-72
2021/11/09 08:12:17;;;;;;;25.20;10.17;;;;;;;;;;5003573;28;20439;-72
2021/11/09 08:14:43;;;;;;;21.70;10.80;;;;;;;;;;5014909;28;20279;-71
2021/11/09 08:17:09;;;;;;;22.03;11.27;;;;;;;;;;5015244;28;20219;-73
2021/11/09 08:22:09;;;;;;;26.53;10.27;;;;;;;;;;5318190;23;20240;-71
2021/11/09 08:24:35;;;;;;;27.40;10.87;;;;;;;;;;5004127;28;20773;-72
2021/11/09 08:27:06;;;;;;;28.30;11.70;;;;;;;;;;5009024;28;20618;-72
2021/11/09 08:29:32;;;;;;;28.20;9.70;;;;;;;;;;5009077;28;20561;-72
2021/11/09 08:31:58;;;;;;;26.40;11.30;;;;;;;;;;5010214;28;20471;-72
2021/11/09 08:34:25;;;;;;;30.10;10.83;;;;;;;;;;5010986;28;20445;-71
2021/11/09 08:36:50;;;;;;;33.93;10.77;;;;;;;;;;5002515;28;20860;-71
2021/11/09 08:39:21;;;;;;;25.63;10.83;;;;;;;;;;5006258;28;20442;-72
2021/11/09 08:41:59;;;;;;;23.03;10.93;;;;;;;;;;5009190;28;20685;-71
2021/11/09 08:44:28;;;;;;;27.43;10.87;;;;;;;;;;5014160;28;20427;-72
2021/11/09 08:46:58;;;;;;;27.13;10.63;;;;;;;;;;5006122;28;20525;-72
2021/11/09 08:49:25;;;;;;;21.73;10.27;;;;;;;;;;5004066;28;20427;-72
2021/11/09 08:51:54;;;;;;;21.20;10.83;;;;;;;;;;4995941;28;20463;-72
2021/11/09 08:54:22;;;;;;;22.53;10.40;;;;;;;;;;4999229;28;20460;-73
2021/11/09 09:04:42;;;;;;;25.30;11.20;;;;;;;;;;5004546;28;20485;-71
2021/11/09 09:07:08;;;;;;;28.93;11.10;;;;;;;;;;4997549;28;21894;-72
2021/11/09 09:09:33;;;;;;;27.30;11.33;;;;;;;;;;5001817;28;20308;-73
2021/11/09 09:11:59;;;;;;;29.20;11.57;;;;;;;;;;5000813;28;20612;-73
2021/11/09 09:14:25;;;;;;;32.83;12.20;;;;;;;;;;5011407;28;20181;-72
2021/11/09 09:16:51;;;;;;;29.87;11.73;;;;;;;;;;5009775;28;20184;-71
2021/11/09 09:19:19;;;;;;;26.47;12.27;;;;;;;;;;5001108;28;20466;-71
2021/11/09 09:21:50;;;;;;;23.20;11.50;;;;;;;;;;5005342;28;20455;-71
2021/11/09 09:32:29;;;;;;;28.50;12.57;;;;;;;;;;5008579;28;20990;-71
2021/11/09 09:56:52;;;;;;;24.87;11.50;;;;;;;;;;5003402;28;20442;-71
2021/11/09 09:59:19;;;;;;;26.40;12.00;;;;;;;;;;5000603;28;20518;-71
2021/11/09 10:01:44;;;;;;;26.80;11.23;;;;;;;;;;4990196;28;20503;-71
2021/11/09 10:04:29;;;;;;;28.77;11.70;;;;;;;;;;4997629;28;20869;-71
2021/11/09 10:06:54;;;;;;;24.93;11.77;;;;;;;;;;5000052;28;20223;-71
2021/11/09 10:09:49;;;;;;;26.53;12.17;;;;;;;;;;5001103;28;20978;-71
2021/11/09 10:12:16;;;;;;;29.03;11.20;;;;;;;;;;4994201;28;20300;-71
2021/11/09 10:14:41;;;;;;;29.93;10.50;;;;;;;;;;4999530;28;20430;-74
2021/11/09 10:17:18;;;;;;;22.60;10.20;;;;;;;;;;5003630;28;20438;-73
2021/11/09 10:19:43;;;;;;;26.00;10.87;;;;;;;;;;5009929;28;20176;-71
2021/11/09 10:22:20;;;;;;;20.93;9.90;;;;;;;;;;5009646;28;20986;-72
2021/11/09 10:24:52;;;;;;;27.00;10.50;;;;;;;;;;5003489;28;20176;-73
2021/11/09 10:27:18;;;;;;;24.83;10.67;;;;;;;;;;5007746;28;21935;-73
2021/11/09 10:29:44;;;;;;;26.50;10.80;;;;;;;;;;5003669;28;20454;-73
2021/11/09 10:32:18;;;;;;;26.60;10.40;;;;;;;;;;5009747;28;20188;-73
2021/11/09 10:34:44;;;;;;;36.27;10.77;;;;;;;;;;5005244;28;20205;-73
2021/11/09 10:37:24;;;;;;;29.83;11.30;;;;;;;;;;5005132;28;20962;-72
2021/11/09 10:39:53;;;;;;;21.10;8.50;;;;;;;;;;5007128;28;21188;-73
2021/11/09 10:42:20;;;;;;;39.30;11.03;;;;;;;;;;5004458;28;20979;-72
2021/11/09 10:44:49;;;;;;;28.27;10.53;;;;;;;;;;5001831;28;20450;-73
2021/11/09 10:47:19;;;;;;;37.70;10.63;;;;;;;;;;5004351;28;20695;-72
2021/11/09 10:49:45;;;;;;;22.07;9.30;;;;;;;;;;5005700;28;20443;-72
2021/11/09 10:52:14;;;;;;;20.67;9.00;;;;;;;;;;5001314;28;20949;-73
2021/11/09 10:54:40;;;;;;;26.87;8.73;;;;;;;;;;5009607;28;20423;-73
2021/11/09 10:57:18;;;;;;;26.10;10.50;;;;;;;;;;5018128;28;20439;-74
2021/11/09 11:00:32;;;;;;;24.67;8.97;;;;;;;;;;5004099;28;20910;-71
2021/11/09 11:05:22;;;;;;;23.43;8.70;;;;;;;;;;5011617;28;20485;-72
2021/11/09 11:07:51;;;;;;;26.47;9.77;;;;;;;;;;5011009;28;25403;-72
2021/11/09 11:10:25;;;;;;;27.60;10.17;;;;;;;;;;5006157;28;20720;-72
2021/11/09 11:12:51;;;;;;;21.80;8.73;;;;;;;;;;5009243;28;20435;-71
2021/11/09 11:15:16;;;;;;;23.30;10.30;;;;;;;;;;5007688;28;20423;-71
2021/11/09 11:17:42;;;;;;;27.67;11.23;;;;;;;;;;5004538;28;20795;-71
2021/11/09 11:20:08;;;;;;;27.40;10.60;;;;;;;;;;5011417;28;20188;-73
2021/11/09 11:22:33;;;;;;;28.13;11.53;;;;;;;;;;5011117;28;20463;-72
2021/11/09 11:24:59;;;;;;;34.90;11.77;;;;;;;;;;5012340;28;20180;-72
2021/11/09 11:27:26;;;;;;;26.70;10.40;;;;;;;;;;5015829;28;20574;-72
2021/11/09 11:29:51;;;;;;;29.00;10.97;;;;;;;;;;5014737;28;20183;-72
2021/11/09 11:32:19;;;;;;;36.20;10.70;;;;;;;;;;5015456;28;20455;-72
2021/11/09 11:34:44;;;;;;;25.17;11.10;;;;;;;;;;5013909;28;20743;-72
2021/11/09 11:37:10;;;;;;;32.97;12.10;;;;;;;;;;5013980;28;20441;-73
2021/11/09 11:39:36;;;;;;;29.47;11.30;;;;;;;;;;5012932;28;20185;-72
2021/11/09 11:42:07;;;;;;;35.83;11.50;;;;;;;;;;5013914;28;20464;-71
2021/11/09 11:44:32;;;;;;;37.77;10.40;;;;;;;;;;5017038;28;20176;-72
2021/11/09 11:46:58;;;;;;;25.43;12.00;;;;;;;;;;5014010;28;20456;-72
2021/11/09 11:49:28;;;;;;;25.57;11.03;;;;;;;;;;5009104;28;20226;-72
2021/11/09 11:51:53;;;;;;;31.60;10.90;;;;;;;;;;5005301;28;20528;-71
2021/11/09 11:54:35;;;;;;;25.10;9.70;;;;;;;;;;5006405;28;20911;-72
2021/11/09 11:57:01;;;;;;;29.50;10.37;;;;;;;;;;5007399;28;20243;-72
2021/11/09 11:59:26;;;;;;;29.27;10.73;;;;;;;;;;5004603;28;20442;-72
2021/11/09 12:01:55;;;;;;;26.87;8.90;;;;;;;;;;5005095;28;20211;-72
2021/11/09 12:04:35;;;;;;;25.90;10.70;;;;;;;;;;5005019;28;20208;-72
2021/11/09 12:07:01;;;;;;;20.93;9.33;;;;;;;;;;5005210;28;20454;-72
2021/11/09 12:09:33;;;;;;;24.87;9.10;;;;;;;;;;5008762;28;20439;-72
2021/11/09 12:11:59;;;;;;;33.33;10.67;;;;;;;;;;5003986;28;20340;-71
2021/11/09 12:14:25;;;;;;;26.63;9.30;;;;;;;;;;5007352;28;20526;-72
2021/11/09 12:17:03;;;;;;;27.30;8.80;;;;;;;;;;5006455;28;20427;-72
2021/11/09 12:19:34;;;;;;;23.37;8.87;;;;;;;;;;5006133;28;20184;-72
2021/11/09 12:22:13;;;;;;;22.83;9.43;;;;;;;;;;5004382;28;20857;-71
2021/11/09 12:24:45;;;;;;;21.17;8.33;;;;;;;;;;5007561;28;20428;-73
2021/11/09 12:27:11;;;;;;;24.67;9.63;;;;;;;;;;5007066;28;23074;-72
2021/11/09 12:29:36;;;;;;;22.50;8.90;;;;;;;;;;5012085;28;20510;-72
2021/11/09 12:32:20;;;;;;;17.90;8.70;;;;;;;;;;5005991;28;20221;-72
2021/11/09 12:35:03;;;;;;;19.93;8.87;;;;;;;;;;5008950;28;20259;-72
2021/11/09 12:37:29;;;;;;;24.03;9.90;;;;;;;;;;5008488;28;20511;-71
2021/11/09 12:40:13;;;;;;;26.33;9.20;;;;;;;;;;5009705;28;20436;-72
2021/11/09 12:42:57;;;;;;;19.90;9.77;;;;;;;;;;5010223;28;20453;-72
2021/11/09 12:45:29;;;;;;;18.57;8.63;;;;;;;;;;5007675;28;20492;-72
2021/11/09 12:48:04;;;;;;;21.90;8.77;;;;;;;;;;5009181;28;20884;-72
2021/11/09 12:50:32;;;;;;;27.23;10.23;;;;;;;;;;5007852;28;20854;-72
2021/11/09 12:53:11;;;;;;;23.17;9.00;;;;;;;;;;5007955;28;20840;-72
2021/11/09 12:55:40;;;;;;;23.37;9.97;;;;;;;;;;5003729;28;20570;-72
2021/11/09 12:58:22;;;;;;;29.03;9.93;;;;;;;;;;5007160;28;20431;-72
2021/11/09 13:01:16;;;;;;;28.83;10.27;;;;;;;;;;5006173;28;20461;-72
2021/11/09 13:03:48;;;;;;;24.30;10.30;;;;;;;;;;5007467;28;20514;-72
2021/11/09 13:06:46;;;;;;;22.70;9.13;;;;;;;;;;5005691;28;20427;-72
2021/11/09 13:11:43;;;;;;;21.87;8.73;;;;;;;;;;5008881;28;20455;-72
2021/11/09 13:14:09;;;;;;;26.03;9.90;;;;;;;;;;5009991;28;20431;-73
2021/11/09 13:16:39;;;;;;;23.87;9.60;;;;;;;;;;5004445;28;20444;-72
2021/11/09 13:19:05;;;;;;;24.37;8.87;;;;;;;;;;5008586;28;20453;-72
2021/11/09 13:21:31;;;;;;;25.80;9.97;;;;;;;;;;5003770;28;20494;-72
2021/11/09 13:23:56;;;;;;;25.30;9.50;;;;;;;;;;5007894;28;20526;-72
2021/11/09 13:26:22;;;;;;;27.00;9.27;;;;;;;;;;5009344;28;20182;-72
2021/11/09 13:28:47;;;;;;;30.30;11.30;;;;;;;;;;5011858;28;20169;-72
2021/11/09 13:31:13;;;;;;;29.10;10.30;;;;;;;;;;5009737;28;20287;-72
2021/11/09 13:33:42;;;;;;;21.93;9.17;;;;;;;;;;5003418;28;20181;-72
2021/11/09 13:36:08;;;;;;;23.17;9.60;;;;;;;;;;5011694;28;20909;-73
2021/11/09 13:38:37;;;;;;;27.80;10.10;;;;;;;;;;5009149;28;20922;-73
2021/11/09 13:41:11;;;;;;;20.80;8.50;;;;;;;;;;5007670;28;20443;-72
2021/11/09 13:43:38;;;;;;;24.03;9.50;;;;;;;;;;5007387;28;20917;-73
2021/11/09 13:46:04;;;;;;;22.03;9.23;;;;;;;;;;5014958;28;20432;-73
2021/11/09 13:48:32;;;;;;;21.80;9.37;;;;;;;;;;5004950;28;20481;-73
2021/11/09 13:50:59;;;;;;;21.10;9.47;;;;;;;;;;5014792;28;20537;-72
2021/11/09 13:53:29;;;;;;;23.70;9.90;;;;;;;;;;5011359;28;20459;-72
2021/11/09 13:55:55;;;;;;;30.70;10.30;;;;;;;;;;5011591;28;20795;-72
2021/11/09 13:58:21;;;;;;;21.53;9.60;;;;;;;;;;5008999;28;21330;-72
2021/11/09 14:00:58;;;;;;;21.03;9.70;;;;;;;;;;5012272;28;20544;-72
2021/11/09 14:03:52;;;;;;;22.33;9.50;;;;;;;;;;5011319;28;20179;-73
2021/11/09 14:14:51;;;;;;;26.93;10.07;;;;;;;;;;5011926;28;20433;-73
2021/11/09 14:17:17;;;;;;;32.60;11.03;;;;;;;;;;5015331;28;20415;-73
2021/11/09 14:19:42;;;;;;;22.17;9.67;;;;;;;;;;5013908;28;20438;-73
2021/11/09 14:22:10;;;;;;;27.63;10.77;;;;;;;;;;5014723;28;21174;-72
2021/11/09 14:24:35;;;;;;;22.50;9.47;;;;;;;;;;5012927;28;20184;-73
2021/11/09 14:27:10;;;;;;;25.67;10.60;;;;;;;;;;5014423;28;20467;-72
2021/11/09 14:29:37;;;;;;;21.40;9.40;;;;;;;;;;5015648;28;20654;-73
2021/11/09 14:32:02;;;;;;;21.37;10.17;;;;;;;;;;5013631;28;21010;-72
2021/11/09 14:34:28;;;;;;;25.73;9.40;;;;;;;;;;5014451;28;20423;-73
2021/11/09 14:37:05;;;;;;;17.73;9.10;;;;;;;;;;5017795;28;20179;-73
2021/11/09 14:39:30;;;;;;;23.13;9.30;;;;;;;;;;5016223;28;20172;-73
2021/11/09 14:42:36;;;;;;;22.37;9.27;;;;;;;;;;5010132;28;20451;-73
2021/11/09 14:45:22;;;;;;;26.80;9.27;;;;;;;;;;4998031;28;20184;-72
2021/11/09 14:47:50;;;;;;;24.73;10.70;;;;;;;;;;5012013;28;21046;-72
2021/11/09 14:53:15;;;;;;;31.20;10.50;;;;;;;;;;5012821;28;20467;-73
2021/11/09 14:55:45;;;;;;;24.50;9.20;;;;;;;;;;5014492;28;20929;-73
2021/11/09 14:58:27;;;;;;;19.40;8.80;;;;;;;;;;5012758;28;20794;-72
2021/11/09 15:00:56;;;;;;;25.87;9.57;;;;;;;;;;5012325;28;20448;-72
2021/11/09 15:03:22;;;;;;;25.73;9.00;;;;;;;;;;5010104;28;20436;-73
2021/11/09 15:05:47;;;;;;;21.93;9.47;;;;;;;;;;5009144;28;20440;-73
2021/11/09 15:08:45;;;;;;;23.53;9.40;;;;;;;;;;5011708;28;20215;-73
2021/11/09 15:11:31;;;;;;;22.03;8.80;;;;;;;;;;5007944;28;20197;-73
2021/11/09 15:30:23;;;;;;;24.63;8.93;;;;;;;;;;5013101;28;20466;-73
2021/11/09 15:32:48;;;;;;;18.53;7.77;;;;;;;;;;5011206;28;20438;-72
2021/11/09 15:35:19;;;;;;;21.20;8.80;;;;;;;;;;5012347;28;20795;-72
2021/11/09 15:37:51;;;;;;;20.90;8.30;;;;;;;;;;5012085;28;20173;-72
2021/11/09 15:40:20;;;;;;;20.73;8.30;;;;;;;;;;5013735;28;20914;-73
2021/11/09 15:42:46;;;;;;;23.47;8.83;;;;;;;;;;5017354;28;20953;-72
2021/11/09 15:45:11;;;;;;;34.13;9.30;;;;;;;;;;5012697;28;20428;-73
2021/11/09 15:47:36;;;;;;;26.20;8.83;;;;;;;;;;5015352;28;20204;-73
2021/11/09 15:50:03;;;;;;;20.80;8.97;;;;;;;;;;5012188;28;20177;-72
2021/11/09 15:52:29;;;;;;;30.43;10.27;;;;;;;;;;5010488;28;20215;-74
2021/11/09 15:54:55;;;;;;;17.43;8.37;;;;;;;;;;5013317;28;20416;-73
2021/11/09 15:57:20;;;;;;;19.63;8.33;;;;;;;;;;5008646;28;20224;-74
2021/11/09 15:59:46;;;;;;;23.43;8.70;;;;;;;;;;5010722;28;20218;-73
2021/11/09 16:02:11;;;;;;;22.07;7.30;;;;;;;;;;4998385;28;20537;-73
2021/11/09 16:04:44;;;;;;;24.80;7.53;;;;;;;;;;4998902;28;21531;-72
2021/11/09 16:07:10;;;;;;;18.50;8.47;;;;;;;;;;5004805;28;20197;-72
2021/11/09 16:09:36;;;;;;;26.10;8.87;;;;;;;;;;5000434;28;20430;-73
2021/11/09 16:12:01;;;;;;;21.77;8.13;;;;;;;;;;4994570;28;20228;-73
2021/11/09 16:14:27;;;;;;;23.30;7.70;;;;;;;;;;4988197;28;20446;-73
2021/11/09 16:16:52;;;;;;;20.27;8.50;;;;;;;;;;4999610;28;20553;-72
2021/11/09 16:19:17;;;;;;;22.10;7.43;;;;;;;;;;5005483;28;20606;-72
2021/11/09 16:21:43;;;;;;;23.43;8.50;;;;;;;;;;4996373;28;20203;-73
2021/11/09 16:24:11;;;;;;;18.50;7.57;;;;;;;;;;4999230;28;20200;-72
2021/11/09 16:26:36;;;;;;;22.43;7.90;;;;;;;;;;5003870;28;20212;-74
2021/11/09 16:29:04;;;;;;;20.20;7.57;;;;;;;;;;5000394;28;20579;-72
2021/11/09 16:31:29;;;;;;;30.00;8.10;;;;;;;;;;5002062;28;20210;-73
2021/11/09 16:33:57;;;;;;;20.43;7.90;;;;;;;;;;5001124;28;20431;-73
2021/11/09 16:36:22;;;;;;;23.37;7.70;;;;;;;;;;5005579;28;20177;-74
2021/11/09 16:38:55;;;;;;;23.27;8.20;;;;;;;;;;5005618;28;20435;-72
2021/11/09 16:41:22;;;;;;;21.83;7.80;;;;;;;;;;4998542;28;20201;-73
2021/11/09 16:44:01;;;;;;;18.27;6.63;;;;;;;;;;5000885;28;20466;-72
2021/11/09 16:51:21;;;;;;;17.23;7.00;;;;;;;;;;4991072;28;26137;-73
2021/11/09 16:53:52;;;;;;;28.20;7.80;;;;;;;;;;5004254;28;20214;-73
2021/11/09 16:59:34;;;;;;;16.33;6.47;;;;;;;;;;4969118;28;20465;-74
2021/11/09 18:19:59;;;;;;;20.93;7.30;;;;;;;;;;5012966;28;20180;-74
2021/11/09 18:22:25;;;;;;;25.23;7.03;;;;;;;;;;5006888;28;20485;-73
2021/11/09 18:24:51;;;;;;;17.13;6.57;;;;;;;;;;4999380;28;20443;-74
2021/11/09 18:27:17;;;;;;;21.80;7.90;;;;;;;;;;5005252;28;20475;-73
2021/11/09 18:29:43;;;;;;;22.07;7.80;;;;;;;;;;5008860;28;20263;-73
2021/11/09 18:32:08;;;;;;;17.63;6.83;;;;;;;;;;5006145;28;20505;-73
2021/11/09 18:34:41;;;;;;;24.20;8.20;;;;;;;;;;5005799;28;20831;-73
2021/11/09 18:37:07;;;;;;;23.63;8.60;;;;;;;;;;5005751;28;20271;-73